Time;durP1;ratioP1;P1;durP2;ratioP2;P2;SDS_P1;SDS_P2;PMS_P1;PMS_P2;Temp;Humidity;BMP_temperature;BMP_pressure;BME280_temperature;BME280_humidity;BME280_pressure;Samples;Min_cycle;Max_cycle;Signal;HPM_P1;HPM_P2
2021/01/31 00:01:19;;;;;;;18.90;11.73;;;-7.20;99.90;;;;;;5050052;28;20013;-58
2021/01/31 00:03:44;;;;;;;16.20;11.80;;;-7.30;99.90;;;;;;5051240;28;20025;-57
2021/01/31 00:06:10;;;;;;;15.97;10.53;;;-7.30;99.90;;;;;;5050628;28;20017;-58
2021/01/31 00:08:36;;;;;;;18.37;11.20;;;-7.40;99.90;;;;;;5051347;28;20124;-56
2021/01/31 00:11:01;;;;;;;12.57;9.67;;;-7.50;99.90;;;;;;5050596;28;20028;-59
2021/01/31 00:13:28;;;;;;;15.37;9.37;;;-7.60;99.90;;;;;;5051151;28;20064;-56
2021/01/31 00:15:54;;;;;;;14.80;10.07;;;-7.60;99.90;;;;;;5048685;28;20029;-59
2021/01/31 00:18:24;;;;;;;16.47;10.43;;;-7.70;99.90;;;;;;5050371;28;20100;-56
2021/01/31 00:20:52;;;;;;;14.47;9.40;;;-7.70;99.90;;;;;;5050734;28;20033;-57
2021/01/31 00:23:18;;;;;;;14.13;9.03;;;-7.70;99.90;;;;;;5050935;28;20013;-60
2021/01/31 00:25:43;;;;;;;14.10;9.70;;;-7.70;99.90;;;;;;5049274;28;20491;-59
2021/01/31 00:28:11;;;;;;;18.27;11.47;;;-7.70;99.90;;;;;;5049982;28;20057;-58
2021/01/31 00:30:46;;;;;;;13.30;9.73;;;-7.70;99.90;;;;;;5050581;28;20036;-57
2021/01/31 00:33:29;;;;;;;16.03;9.50;;;-7.70;99.90;;;;;;5050677;28;20049;-57
2021/01/31 00:35:57;;;;;;;16.80;10.67;;;-7.80;99.90;;;;;;5050018;28;20036;-60
2021/01/31 00:38:25;;;;;;;14.10;9.40;;;-7.70;99.90;;;;;;5048795;28;20434;-59
2021/01/31 00:40:51;;;;;;;14.40;9.57;;;-7.70;99.90;;;;;;5048711;28;20036;-57
2021/01/31 00:43:17;;;;;;;15.83;10.63;;;-7.80;99.90;;;;;;5050470;28;20020;-57
2021/01/31 00:45:43;;;;;;;16.83;10.37;;;-7.80;99.90;;;;;;5050264;28;20036;-59
2021/01/31 00:48:09;;;;;;;17.33;11.30;;;-7.80;99.90;;;;;;5050036;28;20037;-55
2021/01/31 00:50:37;;;;;;;17.90;11.33;;;-7.80;99.90;;;;;;5050347;28;20029;-57
2021/01/31 00:53:04;;;;;;;19.07;12.03;;;-7.90;99.90;;;;;;5050205;28;20566;-56
2021/01/31 00:55:30;;;;;;;13.83;9.63;;;-7.90;99.90;;;;;;5048530;28;20483;-59
2021/01/31 00:57:56;;;;;;;18.30;10.90;;;-7.90;99.90;;;;;;5039068;28;20025;-58
2021/01/31 01:00:35;;;;;;;16.00;9.83;;;-7.90;99.90;;;;;;5050220;28;20518;-59
2021/01/31 01:03:02;;;;;;;16.63;9.40;;;-7.90;99.90;;;;;;5048311;28;20100;-58
2021/01/31 01:05:29;;;;;;;14.50;8.63;;;-7.90;99.90;;;;;;5049776;28;20021;-59
2021/01/31 01:07:55;;;;;;;15.03;10.13;;;-7.90;99.90;;;;;;5048706;28;20031;-58
2021/01/31 01:10:25;;;;;;;17.60;10.70;;;-7.90;99.90;;;;;;5047852;28;20021;-59
2021/01/31 01:12:52;;;;;;;18.87;10.10;;;-7.90;99.90;;;;;;5049156;28;20037;-57
2021/01/31 01:15:22;;;;;;;13.33;10.10;;;-7.90;99.90;;;;;;5049610;28;20025;-57
2021/01/31 01:17:47;;;;;;;17.77;9.47;;;-7.90;99.90;;;;;;5049083;28;20025;-56
2021/01/31 01:20:14;;;;;;;14.63;9.37;;;-7.90;99.90;;;;;;5049666;28;20108;-58
2021/01/31 01:22:40;;;;;;;16.07;9.43;;;-7.90;99.90;;;;;;5048570;28;20112;-57
2021/01/31 01:25:08;;;;;;;12.43;9.37;;;-7.80;99.90;;;;;;5048228;28;20088;-56
2021/01/31 01:27:34;;;;;;;17.97;10.27;;;-7.90;99.90;;;;;;5040647;28;20035;-58
2021/01/31 01:30:00;;;;;;;14.10;9.33;;;-7.80;99.90;;;;;;5049089;28;20100;-57
2021/01/31 01:32:26;;;;;;;17.93;11.37;;;-7.80;99.90;;;;;;5049127;28;20108;-54
2021/01/31 01:34:52;;;;;;;18.77;11.13;;;-7.80;99.90;;;;;;5048676;28;20096;-55
2021/01/31 01:37:18;;;;;;;15.80;10.47;;;-7.80;99.90;;;;;;5047713;28;20024;-56
2021/01/31 01:39:44;;;;;;;16.70;10.97;;;-7.80;99.90;;;;;;5048827;28;20025;-58
2021/01/31 01:42:10;;;;;;;19.00;12.90;;;-7.80;99.90;;;;;;5047230;28;20108;-57
2021/01/31 01:44:37;;;;;;;19.60;10.93;;;-7.80;99.90;;;;;;5039413;28;20028;-57
2021/01/31 01:47:05;;;;;;;20.73;11.10;;;-7.80;99.90;;;;;;5044088;28;20435;-58
2021/01/31 01:49:37;;;;;;;19.03;11.40;;;-7.80;99.90;;;;;;5046596;28;20078;-56
2021/01/31 01:52:32;;;;;;;19.17;11.77;;;-7.80;99.90;;;;;;5045288;28;20071;-59
2021/01/31 01:55:05;;;;;;;19.13;12.17;;;-7.80;99.90;;;;;;5028253;28;20237;-58
2021/01/31 01:57:44;;;;;;;22.63;12.60;;;-7.80;99.90;;;;;;5040818;28;20048;-57
2021/01/31 02:00:11;;;;;;;18.10;11.03;;;-7.80;99.90;;;;;;5046096;28;20025;-58
2021/01/31 02:02:43;;;;;;;21.73;12.63;;;-7.70;99.90;;;;;;5046655;28;20033;-59
2021/01/31 02:05:14;;;;;;;20.80;13.13;;;-7.70;99.90;;;;;;5047234;28;20020;-58
2021/01/31 02:07:41;;;;;;;18.97;11.53;;;-7.60;99.90;;;;;;5037435;28;20534;-59
2021/01/31 02:10:08;;;;;;;20.73;12.37;;;-7.70;99.90;;;;;;5035945;28;20072;-55
2021/01/31 02:12:34;;;;;;;21.30;11.80;;;-7.70;99.90;;;;;;5037979;28;20043;-57
2021/01/31 02:15:03;;;;;;;20.83;13.20;;;-7.70;99.90;;;;;;5046687;28;20033;-56
2021/01/31 02:17:47;;;;;;;20.47;12.47;;;-7.70;99.90;;;;;;5048032;28;20120;-59
2021/01/31 02:20:30;;;;;;;16.43;10.37;;;-7.70;99.90;;;;;;5046626;28;20017;-59
2021/01/31 02:23:23;;;;;;;21.20;11.70;;;-7.70;99.90;;;;;;5047927;28;20021;-58
2021/01/31 02:25:59;;;;;;;15.27;10.80;;;-7.70;99.90;;;;;;5047505;28;20040;-57
2021/01/31 02:28:39;;;;;;;19.42;12.20;;;-7.70;99.90;;;;;;5039513;28;20025;-58
2021/01/31 02:31:08;;;;;;;18.03;12.40;;;-7.70;99.90;;;;;;5048223;28;20021;-58
2021/01/31 02:33:48;;;;;;;17.27;11.33;;;-7.70;99.90;;;;;;5047303;28;20728;-57
2021/01/31 02:36:42;;;;;;;19.53;12.07;;;-7.80;99.90;;;;;;5046855;28;20108;-58
2021/01/31 02:39:32;;;;;;;20.50;11.10;;;-7.80;99.90;;;;;;5047627;28;20661;-57
2021/01/31 02:42:17;;;;;;;23.97;12.27;;;-7.80;99.90;;;;;;5037299;28;20025;-58
2021/01/31 02:44:47;;;;;;;20.37;12.40;;;-7.80;99.90;;;;;;5047744;28;20491;-58
2021/01/31 02:47:21;;;;;;;20.53;12.13;;;-7.80;99.90;;;;;;5047532;28;20549;-57
2021/01/31 02:50:01;;;;;;;19.10;12.47;;;-7.80;99.90;;;;;;5048009;28;20036;-56
2021/01/31 02:52:38;;;;;;;19.70;12.57;;;-7.80;99.90;;;;;;5046549;28;20513;-58
2021/01/31 02:55:08;;;;;;;18.47;12.20;;;-7.80;99.90;;;;;;5045708;28;20027;-58
2021/01/31 02:57:51;;;;;;;20.27;12.37;;;-7.80;99.90;;;;;;5047579;28;20048;-58
2021/01/31 03:00:22;;;;;;;20.17;12.77;;;-7.80;99.90;;;;;;5047688;28;20023;-57
2021/01/31 03:02:50;;;;;;;18.80;11.63;;;-7.80;99.90;;;;;;5046934;28;20049;-57
2021/01/31 03:05:23;;;;;;;20.70;12.27;;;-7.80;99.90;;;;;;5048072;28;20025;-58
2021/01/31 03:08:14;;;;;;;24.43;13.63;;;-7.80;99.90;;;;;;5046871;28;20029;-57
2021/01/31 03:11:01;;;;;;;18.90;12.27;;;-7.80;99.90;;;;;;5046486;28;20021;-59
2021/01/31 03:13:38;;;;;;;19.67;12.00;;;-7.90;99.90;;;;;;5047737;28;20021;-57
2021/01/31 03:16:17;;;;;;;21.73;12.63;;;-7.90;99.90;;;;;;5048118;28;20043;-58
2021/01/31 03:18:50;;;;;;;21.53;11.50;;;-7.90;99.90;;;;;;5046316;28;20029;-59
2021/01/31 03:21:23;;;;;;;19.00;12.03;;;-7.90;99.90;;;;;;5047856;28;20452;-57
2021/01/31 03:24:07;;;;;;;20.63;12.30;;;-7.90;99.90;;;;;;5048070;28;20013;-58
2021/01/31 03:26:54;;;;;;;19.07;11.43;;;-7.90;99.90;;;;;;5046297;28;20052;-57
2021/01/31 03:29:20;;;;;;;22.17;12.70;;;-7.90;99.90;;;;;;5048281;28;20024;-55
2021/01/31 03:31:50;;;;;;;21.03;11.37;;;-7.90;99.90;;;;;;5049880;28;20017;-56
2021/01/31 03:34:22;;;;;;;18.80;11.63;;;-7.90;99.90;;;;;;5054190;28;20477;-58
2021/01/31 03:36:53;;;;;;;19.37;12.53;;;-7.90;99.90;;;;;;5044049;28;20158;-59
2021/01/31 03:39:20;;;;;;;19.47;12.23;;;-7.90;99.90;;;;;;5040661;28;20021;-57
2021/01/31 03:41:46;;;;;;;19.03;12.20;;;-7.90;99.90;;;;;;5046715;28;20106;-59
2021/01/31 03:44:12;;;;;;;18.33;11.70;;;-7.90;99.90;;;;;;5051477;28;20060;-57
2021/01/31 03:46:58;;;;;;;26.30;13.10;;;-7.90;99.90;;;;;;5050848;28;20025;-58
2021/01/31 03:49:35;;;;;;;19.80;12.20;;;-8.00;99.90;;;;;;5050664;28;20031;-58
2021/01/31 03:52:00;;;;;;;19.00;12.67;;;-8.00;99.90;;;;;;5058158;28;20037;-56
2021/01/31 03:54:27;;;;;;;21.23;13.10;;;-8.00;99.90;;;;;;5054303;28;20138;-58
2021/01/31 03:56:58;;;;;;;22.50;11.77;;;-8.00;99.90;;;;;;5049663;28;20068;-57
2021/01/31 03:59:32;;;;;;;22.00;12.80;;;-8.00;99.90;;;;;;5057158;28;20027;-57
2021/01/31 04:01:59;;;;;;;17.43;11.77;;;-8.00;99.90;;;;;;5055218;28;20025;-59
2021/01/31 04:04:46;;;;;;;19.67;12.23;;;-8.00;99.90;;;;;;5054426;28;20035;-58
2021/01/31 04:07:13;;;;;;;;;;;-8.00;99.90;;;;;;5053206;28;20092;-57
2021/01/31 04:09:40;;;;;;;17.53;10.23;;;-8.10;99.90;;;;;;5053633;28;19908;-58
2021/01/31 04:12:09;;;;;;;21.73;12.43;;;-8.10;99.90;;;;;;5058855;28;20029;-56
2021/01/31 04:14:45;;;;;;;19.30;11.30;;;-8.10;99.90;;;;;;5050324;28;20030;-59
2021/01/31 04:17:11;;;;;;;20.25;10.30;;;-8.10;99.90;;;;;;5049005;28;20056;-58
2021/01/31 04:19:37;;;;;;;19.63;11.57;;;-8.10;99.90;;;;;;5052456;28;20118;-58
2021/01/31 04:22:02;;;;;;;19.77;11.20;;;-8.10;99.90;;;;;;5054213;28;20021;-57
2021/01/31 04:24:28;;;;;;;18.80;11.97;;;-8.10;99.90;;;;;;5053871;28;20021;-58
2021/01/31 04:26:53;;;;;;;18.27;11.30;;;-8.10;99.90;;;;;;5050022;28;20079;-57
2021/01/31 04:29:19;;;;;;;21.93;12.60;;;-8.10;99.90;;;;;;5048047;28;20056;-58
2021/01/31 04:31:45;;;;;;;19.67;11.17;;;-8.10;99.90;;;;;;5050492;28;20029;-57
2021/01/31 04:34:10;;;;;;;18.43;11.40;;;-8.10;99.90;;;;;;5054484;28;20032;-57
2021/01/31 04:36:36;;;;;;;14.67;10.17;;;-8.10;99.90;;;;;;5060291;28;20024;-56
2021/01/31 04:39:03;;;;;;;18.53;11.63;;;-8.10;99.90;;;;;;5057302;28;20647;-58
2021/01/31 04:41:36;;;;;;;19.53;11.63;;;-8.10;99.90;;;;;;5053118;28;20036;-58
2021/01/31 04:44:04;;;;;;;20.93;12.50;;;-8.10;99.90;;;;;;5050738;28;20075;-57
2021/01/31 04:46:47;;;;;;;19.13;10.97;;;-8.10;99.90;;;;;;5045171;28;20028;-58
2021/01/31 04:49:32;;;;;;;15.77;10.40;;;-8.10;99.90;;;;;;5033400;28;20420;-58
2021/01/31 04:52:14;;;;;;;19.50;11.30;;;-8.20;99.90;;;;;;5035711;28;20053;-54
2021/01/31 04:55:07;;;;;;;14.47;10.37;;;-8.10;99.90;;;;;;5047299;28;20021;-59
2021/01/31 04:57:40;;;;;;;20.07;11.80;;;-8.10;99.90;;;;;;5050705;28;20024;-58
2021/01/31 05:00:17;;;;;;;23.13;12.03;;;-8.10;99.90;;;;;;5077192;28;20021;-58
2021/01/31 05:02:48;;;;;;;20.00;11.03;;;-8.10;99.90;;;;;;5057860;28;20020;-59
2021/01/31 05:05:20;;;;;;;19.67;11.43;;;-8.10;99.90;;;;;;5054138;28;20037;-58
2021/01/31 05:07:58;;;;;;;17.47;10.57;;;-8.10;99.90;;;;;;5057409;28;20021;-57
2021/01/31 05:10:25;;;;;;;16.17;10.60;;;-8.10;99.90;;;;;;5052989;28;20558;-59
2021/01/31 05:13:17;;;;;;;17.13;10.23;;;-8.10;99.90;;;;;;5049573;28;20108;-54
2021/01/31 05:16:04;;;;;;;22.07;11.67;;;-8.10;99.90;;;;;;5051135;28;20025;-58
2021/01/31 05:18:33;;;;;;;13.48;8.35;;;-8.10;99.90;;;;;;5051312;28;20434;-57
2021/01/31 05:21:04;;;;;;;21.37;11.97;;;-8.10;99.90;;;;;;5052323;28;20479;-59
2021/01/31 05:23:35;;;;;;;19.47;10.83;;;-8.10;99.90;;;;;;5048780;28;20377;-55
2021/01/31 05:26:01;;;;;;;19.30;12.20;;;-8.10;99.90;;;;;;5040832;28;20400;-58
2021/01/31 05:28:29;;;;;;;20.60;12.87;;;-8.10;99.90;;;;;;5049143;28;20020;-58
2021/01/31 05:30:56;;;;;;;20.83;12.73;;;-8.00;99.90;;;;;;5055213;28;20040;-58
2021/01/31 05:33:22;;;;;;;21.43;12.67;;;-8.00;99.90;;;;;;5050100;28;20035;-56
2021/01/31 05:36:06;;;;;;;25.67;13.40;;;-8.00;99.90;;;;;;5054154;28;20364;-59
2021/01/31 05:38:43;;;;;;;24.30;13.00;;;-7.90;99.90;;;;;;5048971;28;20047;-56
2021/01/31 05:41:43;;;;;;;25.50;13.33;;;-7.90;99.90;;;;;;5049838;28;20028;-56
2021/01/31 05:44:14;;;;;;;19.77;12.20;;;-7.80;99.90;;;;;;5056140;28;20017;-56
2021/01/31 05:46:46;;;;;;;19.27;11.47;;;-7.80;99.90;;;;;;5052681;28;20045;-58
2021/01/31 05:49:30;;;;;;;19.23;12.20;;;-7.70;99.90;;;;;;5057338;28;20027;-56
2021/01/31 05:51:57;;;;;;;25.10;14.27;;;-7.60;99.90;;;;;;5051803;28;20490;-58
2021/01/31 05:54:26;;;;;;;20.90;12.43;;;-7.60;99.90;;;;;;5054269;28;20542;-58
2021/01/31 05:56:52;;;;;;;22.30;13.13;;;-7.50;99.90;;;;;;5049353;28;20067;-58
2021/01/31 05:59:18;;;;;;;23.50;14.70;;;-7.50;99.90;;;;;;5059762;28;20051;-56
2021/01/31 06:01:57;;;;;;;21.40;14.13;;;-7.40;99.90;;;;;;5057591;28;20491;-56
2021/01/31 06:04:25;;;;;;;23.53;14.70;;;-7.30;99.90;;;;;;5047649;28;20029;-59
2021/01/31 06:06:54;;;;;;;19.57;12.93;;;-7.30;99.90;;;;;;5049319;28;20025;-55
2021/01/31 06:09:35;;;;;;;25.53;13.70;;;-7.20;99.90;;;;;;5054407;28;20032;-58
2021/01/31 06:12:26;;;;;;;22.63;13.70;;;-7.20;99.90;;;;;;5058007;28;20025;-55
2021/01/31 06:15:21;;;;;;;24.00;13.50;;;-7.10;99.90;;;;;;5046130;28;20047;-54
2021/01/31 06:17:56;;;;;;;23.03;13.53;;;-7.00;99.90;;;;;;5046386;28;20043;-57
2021/01/31 06:20:30;;;;;;;18.70;10.82;;;-7.00;99.90;;;;;;5060298;28;20080;-60
2021/01/31 06:22:56;;;;;;;21.73;13.83;;;-6.90;99.90;;;;;;5047378;28;20104;-56
2021/01/31 06:25:28;;;;;;;21.93;14.47;;;-6.80;99.90;;;;;;5052345;28;20017;-54
2021/01/31 06:28:09;;;;;;;24.40;15.50;;;-6.80;99.90;;;;;;5049755;28;20028;-58
2021/01/31 06:30:42;;;;;;;25.80;14.87;;;-6.70;99.90;;;;;;5057357;28;20100;-55
2021/01/31 06:33:08;;;;;;;23.17;14.97;;;-6.70;99.90;;;;;;5049468;28;20036;-54
2021/01/31 06:35:34;;;;;;;26.37;15.53;;;-6.60;99.90;;;;;;5048332;28;20499;-58
2021/01/31 06:37:59;;;;;;;24.43;15.10;;;-6.60;99.90;;;;;;5060021;28;20028;-56
2021/01/31 06:40:46;;;;;;;23.97;13.63;;;-6.60;99.90;;;;;;5060881;28;20096;-57
2021/01/31 06:43:20;;;;;;;20.67;14.45;;;-6.50;99.90;;;;;;5044400;28;20471;-53
2021/01/31 06:46:04;;;;;;;23.60;14.50;;;-6.50;99.90;;;;;;5048429;28;20550;-56
2021/01/31 06:48:35;;;;;;;21.93;13.60;;;-6.40;99.90;;;;;;5043647;28;20040;-57
2021/01/31 06:51:19;;;;;;;24.37;14.80;;;-6.40;99.90;;;;;;5056855;28;20033;-57
2021/01/31 06:54:26;;;;;;;25.00;15.23;;;-6.30;99.90;;;;;;5054236;28;20553;-58
2021/01/31 06:57:22;;;;;;;26.30;14.80;;;-6.30;99.90;;;;;;5006333;28;20034;-54
2021/01/31 07:00:19;;;;;;;16.00;9.75;;;-6.30;99.90;;;;;;5057770;28;20299;-56
2021/01/31 07:03:28;;;;;;;24.67;14.82;;;-6.30;99.90;;;;;;5051461;28;20028;-58
2021/01/31 07:06:22;;;;;;;25.07;14.03;;;-6.20;99.90;;;;;;5062695;28;20029;-58
2021/01/31 07:09:08;;;;;;;25.60;15.10;;;-6.20;99.90;;;;;;5063269;28;20537;-57
2021/01/31 07:12:10;;;;;;;24.33;15.00;;;-6.20;99.90;;;;;;5063059;28;20020;-57
2021/01/31 07:14:46;;;;;;;24.83;14.70;;;-6.10;99.90;;;;;;5058082;28;20036;-58
2021/01/31 07:17:44;;;;;;;24.27;14.27;;;-6.00;99.90;;;;;;5057222;28;20029;-59
2021/01/31 07:20:21;;;;;;;22.03;14.20;;;-6.00;99.90;;;;;;5060012;28;20025;-59
2021/01/31 07:22:53;;;;;;;24.93;15.00;;;-5.90;99.90;;;;;;5059767;28;20037;-58
2021/01/31 07:25:25;;;;;;;24.73;14.30;;;-5.90;99.90;;;;;;5062586;28;20430;-57
2021/01/31 07:27:59;;;;;;;22.33;14.50;;;-5.90;99.90;;;;;;5052822;28;20026;-58
2021/01/31 07:31:03;;;;;;;23.70;13.93;;;-5.80;99.90;;;;;;5062780;28;20081;-58
2021/01/31 07:33:44;;;;;;;21.92;13.45;;;-5.80;99.90;;;;;;5049820;28;20047;-57
2021/01/31 07:36:21;;;;;;;25.90;15.17;;;-5.70;99.90;;;;;;5034034;28;20025;-58
2021/01/31 07:38:54;;;;;;;22.03;13.47;;;-5.60;99.90;;;;;;5031036;28;20514;-58
2021/01/31 07:41:20;;;;;;;26.87;15.17;;;-5.60;99.90;;;;;;5032538;28;20053;-59
2021/01/31 07:43:51;;;;;;;24.87;14.80;;;-5.60;99.90;;;;;;5034027;28;20538;-59
2021/01/31 07:46:18;;;;;;;23.97;13.97;;;-5.50;99.90;;;;;;5036077;28;20041;-59
2021/01/31 07:48:44;;;;;;;27.27;15.70;;;-5.40;99.90;;;;;;5031847;28;20025;-57
2021/01/31 07:51:18;;;;;;;27.02;15.27;;;-5.40;99.90;;;;;;5033714;28;20427;-59
2021/01/31 07:53:44;;;;;;;22.60;14.25;;;-5.30;99.90;;;;;;5030246;28;20022;-58
2021/01/31 07:56:32;;;;;;;22.25;13.95;;;-5.30;99.90;;;;;;5033279;28;20476;-59
2021/01/31 07:59:19;;;;;;;23.85;14.52;;;-5.20;99.90;;;;;;5043300;28;20032;-55
2021/01/31 08:01:51;;;;;;;22.70;12.30;;;-5.20;99.90;;;;;;5028471;28;20041;-57
2021/01/31 08:04:17;;;;;;;26.25;12.82;;;-5.20;99.90;;;;;;5032471;28;20105;-59
2021/01/31 08:06:50;;;;;;;25.02;14.50;;;-5.10;99.90;;;;;;5032627;28;20704;-59
2021/01/31 08:09:30;;;;;;;19.17;12.57;;;-5.00;99.90;;;;;;5029750;28;20018;-58
2021/01/31 08:12:00;;;;;;;23.42;13.07;;;-4.90;99.90;;;;;;5028681;28;20483;-59
2021/01/31 08:15:04;;;;;;;25.08;13.85;;;-4.90;99.90;;;;;;5034521;28;20045;-59
2021/01/31 08:17:59;;;;;;;20.92;12.40;;;-4.80;99.90;;;;;;5045052;28;20033;-58
2021/01/31 08:20:34;;;;;;;24.52;14.90;;;-4.70;99.90;;;;;;5024626;28;20442;-58
2021/01/31 08:23:05;;;;;;;22.48;14.35;;;-4.70;99.90;;;;;;5028962;28;20029;-60
2021/01/31 08:25:33;;;;;;;20.83;12.82;;;-4.70;99.90;;;;;;5034338;28;20111;-59
2021/01/31 08:28:02;;;;;;;22.85;13.43;;;-4.60;99.90;;;;;;5042014;28;20017;-58
2021/01/31 08:30:39;;;;;;;20.25;12.63;;;-4.50;99.90;;;;;;5035349;28;20096;-58
2021/01/31 08:33:05;;;;;;;22.33;12.90;;;-4.50;99.90;;;;;;5031246;28;20570;-60
2021/01/31 08:35:36;;;;;;;17.67;11.98;;;-4.40;99.90;;;;;;5034466;28;20057;-58
2021/01/31 08:38:38;;;;;;;20.58;11.93;;;-4.30;99.90;;;;;;5029588;28;20052;-59
2021/01/31 08:41:03;;;;;;;19.02;11.73;;;-4.20;99.90;;;;;;5025149;28;20037;-58
2021/01/31 08:43:33;;;;;;;20.42;13.02;;;-4.10;99.90;;;;;;5031281;28;20101;-58
2021/01/31 08:46:19;;;;;;;20.15;11.82;;;-4.10;99.90;;;;;;5031600;28;20032;-60
2021/01/31 08:48:53;;;;;;;20.85;13.57;;;-3.90;99.90;;;;;;5030527;28;20051;-56
2021/01/31 08:51:20;;;;;;;18.23;11.90;;;-3.80;99.90;;;;;;5032825;28;20432;-59
2021/01/31 08:54:05;;;;;;;29.75;18.52;;;-3.80;99.90;;;;;;5029731;28;20083;-59
2021/01/31 08:56:43;;;;;;;20.33;11.27;;;-3.70;99.90;;;;;;5027995;28;20026;-60
2021/01/31 08:59:46;;;;;;;20.70;11.95;;;-3.60;99.90;;;;;;5028887;28;20025;-59
2021/01/31 09:02:16;;;;;;;19.05;11.48;;;-3.60;99.90;;;;;;5018202;28;20029;-59
2021/01/31 09:05:04;;;;;;;19.15;11.52;;;-3.40;99.90;;;;;;5031623;28;20036;-58
2021/01/31 09:07:34;;;;;;;16.17;9.50;;;-3.40;99.90;;;;;;5039339;28;20052;-58
2021/01/31 09:10:16;;;;;;;21.58;11.93;;;-3.30;99.90;;;;;;5048906;28;20096;-60
2021/01/31 09:12:42;;;;;;;14.43;9.13;;;-3.10;99.90;;;;;;5051890;28;20020;-59
2021/01/31 09:15:11;;;;;;;13.85;8.07;;;-3.00;99.90;;;;;;5058487;28;21014;-58
2021/01/31 09:17:37;;;;;;;13.55;7.90;;;-3.00;99.90;;;;;;5049121;28;20017;-60
2021/01/31 09:20:29;;;;;;;13.43;9.00;;;-2.90;99.90;;;;;;5048244;28;20559;-59
2021/01/31 09:22:59;;;;;;;11.57;7.57;;;-2.90;99.90;;;;;;5043558;28;20083;-58
2021/01/31 09:25:27;;;;;;;12.25;7.90;;;-2.80;99.90;;;;;;5033149;28;20173;-61
2021/01/31 09:28:17;;;;;;;11.45;6.53;;;-2.80;99.90;;;;;;5044681;28;20025;-57
2021/01/31 09:30:44;;;;;;;13.98;8.88;;;-2.80;99.90;;;;;;5046326;28;20108;-60
2021/01/31 09:33:30;;;;;;;14.88;9.18;;;-2.80;99.90;;;;;;5034770;28;20029;-58
2021/01/31 09:35:55;;;;;;;11.45;6.78;;;-2.80;99.90;;;;;;5032297;28;20017;-59
2021/01/31 09:38:28;;;;;;;11.07;8.77;;;-2.70;99.90;;;;;;5038911;28;20048;-59
2021/01/31 09:40:58;;;;;;;11.13;7.15;;;-2.70;99.90;;;;;;5044813;28;20119;-60
2021/01/31 09:43:27;;;;;;;20.15;11.35;;;-2.70;99.90;;;;;;5049336;28;20574;-59
2021/01/31 09:45:56;;;;;;;15.55;9.77;;;-2.70;99.90;;;;;;5045797;28;20075;-58
2021/01/31 09:48:25;;;;;;;13.55;9.00;;;-2.80;99.90;;;;;;5045126;28;20308;-59
2021/01/31 09:50:55;;;;;;;10.48;6.78;;;-2.80;99.90;;;;;;5048646;28;20021;-60
2021/01/31 09:53:36;;;;;;;10.93;6.88;;;-2.80;99.90;;;;;;5048896;28;20036;-58
2021/01/31 09:56:30;;;;;;;9.20;6.65;;;-2.80;99.90;;;;;;5048814;28;20082;-58
2021/01/31 09:58:56;;;;;;;12.23;6.95;;;-2.70;99.90;;;;;;5048636;28;20047;-57
2021/01/31 10:01:24;;;;;;;11.00;6.63;;;-2.50;99.90;;;;;;5048553;28;20619;-58
2021/01/31 10:04:02;;;;;;;10.25;6.45;;;-2.40;99.90;;;;;;5048848;28;20493;-59
2021/01/31 10:06:49;;;;;;;11.20;6.75;;;-2.30;99.90;;;;;;5048904;28;20103;-60
2021/01/31 10:09:31;;;;;;;11.68;7.57;;;-2.20;99.90;;;;;;5046945;28;20037;-57
2021/01/31 10:12:27;;;;;;;9.73;6.72;;;-2.20;99.90;;;;;;5046713;28;20021;-59
2021/01/31 10:14:59;;;;;;;13.45;6.72;;;-2.20;99.90;;;;;;5048686;28;20017;-57
2021/01/31 10:17:28;;;;;;;9.73;6.43;;;-2.20;99.90;;;;;;5048496;28;20051;-55
2021/01/31 10:20:34;;;;;;;8.65;6.32;;;-2.10;99.90;;;;;;5047570;28;20535;-56
2021/01/31 10:23:06;;;;;;;10.85;6.88;;;-2.00;99.90;;;;;;5049203;28;20369;-56
2021/01/31 10:25:36;;;;;;;12.52;7.28;;;-1.80;99.90;;;;;;5045106;28;20032;-58
2021/01/31 10:28:04;;;;;;;8.90;6.18;;;-1.80;99.90;;;;;;5031959;28;20018;-56
2021/01/31 10:30:50;;;;;;;11.52;7.18;;;-1.70;99.90;;;;;;5043479;28;20029;-58
2021/01/31 10:33:46;;;;;;;11.65;6.90;;;-1.60;99.90;;;;;;5049189;28;20426;-58
2021/01/31 10:36:27;;;;;;;11.93;7.00;;;-1.50;99.90;;;;;;5047379;28;20123;-59
2021/01/31 10:39:13;;;;;;;10.27;6.78;;;-1.40;99.90;;;;;;5048090;28;20025;-58
2021/01/31 10:41:40;;;;;;;;;;;-1.40;99.90;;;;;;5052569;28;20483;-56
2021/01/31 10:44:09;;;;;;;18.92;8.80;;;-1.30;99.90;;;;;;5051524;28;20007;-57
2021/01/31 10:46:36;;;;;;;11.15;6.95;;;-1.30;99.90;;;;;;5050970;28;20029;-59
2021/01/31 10:49:02;;;;;;;11.70;7.55;;;-1.20;99.90;;;;;;5052550;28;20111;-58
2021/01/31 10:51:31;;;;;;;12.15;7.10;;;-1.20;99.90;;;;;;5051832;28;20040;-59
2021/01/31 10:53:57;;;;;;;9.88;7.03;;;-1.10;99.90;;;;;;5051216;28;20025;-57
2021/01/31 10:56:22;;;;;;;11.63;6.30;;;-1.10;99.90;;;;;;5048530;28;20152;-54
2021/01/31 10:58:48;;;;;;;11.88;7.43;;;-1.00;99.90;;;;;;5048884;28;20040;-58
2021/01/31 11:01:14;;;;;;;9.70;6.78;;;-1.00;99.90;;;;;;5049510;28;20028;-58
2021/01/31 11:03:40;;;;;;;11.50;7.65;;;-1.00;99.90;;;;;;5046973;28;20022;-56
2021/01/31 11:06:06;;;;;;;10.02;6.60;;;-1.00;99.90;;;;;;5043928;28;20586;-58
2021/01/31 11:08:31;;;;;;;8.45;6.57;;;-1.00;99.90;;;;;;5041518;28;20059;-57
2021/01/31 11:10:57;;;;;;;10.52;7.03;;;-1.00;99.90;;;;;;5041030;28;20036;-58
2021/01/31 11:13:23;;;;;;;11.63;6.70;;;-1.00;99.90;;;;;;5050288;28;20028;-58
2021/01/31 11:15:49;;;;;;;12.30;7.30;;;-1.10;99.90;;;;;;5051609;28;20025;-58
2021/01/31 11:18:14;;;;;;;11.70;7.63;;;-1.10;99.90;;;;;;5060530;28;20037;-58
2021/01/31 11:20:40;;;;;;;11.98;6.68;;;-1.10;99.90;;;;;;5042791;28;20100;-55
2021/01/31 11:23:06;;;;;;;12.25;7.25;;;-1.10;99.90;;;;;;5042393;28;20036;-57
2021/01/31 11:25:31;;;;;;;11.38;7.32;;;-1.20;99.90;;;;;;5044242;28;20025;-57
2021/01/31 11:27:57;;;;;;;9.40;6.55;;;-1.20;99.90;;;;;;5045042;28;20021;-58
2021/01/31 11:30:23;;;;;;;11.80;6.97;;;-1.20;99.90;;;;;;5034601;28;20056;-57
2021/01/31 11:32:48;;;;;;;11.15;7.25;;;-1.20;99.90;;;;;;5050094;28;20017;-56
2021/01/31 11:35:14;;;;;;;11.68;7.05;;;-1.20;99.90;;;;;;5058370;28;20032;-58
2021/01/31 11:37:41;;;;;;;35.70;18.05;;;-1.20;99.90;;;;;;5043211;28;20413;-54
2021/01/31 11:40:08;;;;;;;12.27;7.85;;;-1.20;99.90;;;;;;5035317;28;20026;-55
2021/01/31 11:42:34;;;;;;;13.48;8.27;;;-1.20;99.90;;;;;;5049597;28;20040;-59
2021/01/31 11:44:59;;;;;;;14.32;8.00;;;-1.20;99.90;;;;;;5032686;28;20017;-58
2021/01/31 11:47:25;;;;;;;12.88;10.18;;;-1.20;99.90;;;;;;5047617;28;20604;-56
2021/01/31 11:49:52;;;;;;;10.68;7.75;;;-1.20;99.90;;;;;;5030230;28;20024;-55
2021/01/31 11:52:18;;;;;;;13.02;8.35;;;-1.20;99.90;;;;;;5049318;28;20174;-57
2021/01/31 11:54:44;;;;;;;11.90;7.82;;;-1.20;99.90;;;;;;5050805;28;20104;-58
2021/01/31 11:57:10;;;;;;;17.05;11.45;;;-1.20;99.90;;;;;;5046478;28;20021;-56
2021/01/31 11:59:39;;;;;;;11.45;9.75;;;-1.20;99.90;;;;;;5050261;28;20400;-54
2021/01/31 12:02:05;;;;;;;14.18;8.82;;;-1.10;99.90;;;;;;5049295;28;20060;-53
2021/01/31 12:04:30;;;;;;;14.20;7.93;;;-1.10;99.90;;;;;;5047003;28;20487;-58
2021/01/31 12:06:56;;;;;;;13.23;8.15;;;-1.10;99.90;;;;;;5046909;28;20175;-57
2021/01/31 12:09:21;;;;;;;11.95;7.43;;;-1.00;99.90;;;;;;5050390;28;20124;-54
2021/01/31 12:11:47;;;;;;;12.43;8.48;;;-0.90;99.90;;;;;;5050316;28;20146;-58
2021/01/31 12:14:12;;;;;;;12.95;8.50;;;-0.80;99.90;;;;;;5050084;28;20024;-57
2021/01/31 12:16:38;;;;;;;14.23;8.02;;;-0.60;99.90;;;;;;5050088;28;20017;-58
2021/01/31 12:19:03;;;;;;;13.45;7.82;;;-0.50;99.90;;;;;;5049608;28;20112;-56
2021/01/31 12:21:29;;;;;;;12.70;7.47;;;-0.40;99.90;;;;;;5049771;28;20035;-59
2021/01/31 12:23:55;;;;;;;15.13;7.40;;;-0.40;99.90;;;;;;5047565;28;20067;-58
2021/01/31 12:26:20;;;;;;;11.45;7.65;;;-0.40;99.90;;;;;;5049256;28;20115;-57
2021/01/31 12:28:46;;;;;;;13.25;8.20;;;-0.40;99.90;;;;;;5050386;28;20083;-53
2021/01/31 12:31:12;;;;;;;13.32;8.05;;;-0.30;99.90;;;;;;5049359;28;20365;-57
2021/01/31 12:33:37;;;;;;;11.25;7.65;;;-0.30;99.90;;;;;;5050616;28;20032;-58
2021/01/31 12:36:04;;;;;;;13.52;8.18;;;-0.30;99.90;;;;;;5048798;28;20052;-59
2021/01/31 12:38:30;;;;;;;11.85;7.85;;;-0.40;99.90;;;;;;5048189;28;20116;-57
2021/01/31 12:40:55;;;;;;;11.05;7.55;;;-0.40;99.90;;;;;;5050427;28;20100;-58
2021/01/31 12:43:21;;;;;;;11.05;7.28;;;-0.40;99.90;;;;;;5050596;28;20025;-55
2021/01/31 12:45:46;;;;;;;10.65;6.32;;;-0.30;99.90;;;;;;5050261;28;20032;-56
2021/01/31 12:48:12;;;;;;;10.32;6.85;;;-0.40;99.90;;;;;;5048957;28;20541;-58
2021/01/31 12:50:37;;;;;;;10.10;6.35;;;-0.40;99.90;;;;;;5048744;28;20125;-57
2021/01/31 12:53:03;;;;;;;10.70;6.90;;;-0.40;99.90;;;;;;5050414;28;20087;-57
2021/01/31 12:55:29;;;;;;;12.05;7.45;;;-0.40;99.90;;;;;;5049273;28;20029;-56
2021/01/31 12:57:54;;;;;;;9.98;6.18;;;-0.40;99.90;;;;;;5041642;28;20090;-57
2021/01/31 13:00:21;;;;;;;11.88;7.43;;;-0.40;99.90;;;;;;5045026;28;20044;-58